logo
Search for airport 
image banner adimage banner adimage banner ad
image banner ad

EDHEL - Helmstedt

Located in , Germany

ICAO - , IATA -

Data provided by Airmate  

General information

Coordinates: N52°14'3" E10°58'42"
Elevation is 363 feet MSL.
 
View others Airports in (unassigned)

Operational data

Special qualification required
Current time UTC:
Current local time:
Weather at : EDVE - Braunschweig-Wolfsburg ( 30 km )
METAR: EDVE 251450Z 24004KT 180V280 CAVOK 24/11 Q1013
TAF: TAF EDVE 251400Z 2515/2521 23005KT CAVOK BECMG 2518/2520 16003KT
View NOTAMs / SUP AIP / TFR affecting this airport [VIEW]
Communications frequencies: [VIEW]

Runways:

RWY identifierQFULength (ft)Width (ft)SurfaceLDA (ft)
0880°180498GRASS
26260°180498GRASS

Airport contact information

Address: Germany

Satellite view of EDHEL